sensor_id;sensor_type;location;lat;lon;timestamp;pressure;altitude;pressure_sealevel;temperature;humidity
63343;BME280;49465;57.664;39.686;2023-04-10T00:00:35;101454.50;;;11.13;39.25
63343;BME280;49465;57.664;39.686;2023-04-10T00:03:03;101457.22;;;11.12;38.43
63343;BME280;49465;57.664;39.686;2023-04-10T00:05:29;101460.91;;;11.07;38.52
63343;BME280;49465;57.664;39.686;2023-04-10T00:07:56;101462.84;;;11.04;38.83
63343;BME280;49465;57.664;39.686;2023-04-10T00:10:22;101462.06;;;11.02;39.37
63343;BME280;49465;57.664;39.686;2023-04-10T00:12:51;101458.66;;;11.00;39.03
63343;BME280;49465;57.664;39.686;2023-04-10T00:15:21;101466.59;;;10.98;38.74
63343;BME280;49465;57.664;39.686;2023-04-10T00:17:48;101463.19;;;10.96;39.40
63343;BME280;49465;57.664;39.686;2023-04-10T00:20:20;101458.91;;;10.94;39.60
63343;BME280;49465;57.664;39.686;2023-04-10T00:22:48;101464.25;;;10.92;38.75
63343;BME280;49465;57.664;39.686;2023-04-10T00:25:15;101459.09;;;10.91;39.02
63343;BME280;49465;57.664;39.686;2023-04-10T00:27:41;101465.34;;;10.88;39.15
63343;BME280;49465;57.664;39.686;2023-04-10T00:30:11;101472.56;;;11.02;39.01
63343;BME280;49465;57.664;39.686;2023-04-10T00:32:37;101468.09;;;10.85;38.72
63343;BME280;49465;57.664;39.686;2023-04-10T00:35:08;101470.84;;;11.01;38.74
63343;BME280;49465;57.664;39.686;2023-04-10T00:37:34;101470.84;;;10.82;38.63
63343;BME280;49465;57.664;39.686;2023-04-10T00:40:02;101474.47;;;10.79;39.22
63343;BME280;49465;57.664;39.686;2023-04-10T00:42:28;101459.72;;;10.77;39.32
63343;BME280;49465;57.664;39.686;2023-04-10T00:44:54;101469.44;;;10.75;39.41
63343;BME280;49465;57.664;39.686;2023-04-10T00:47:21;101469.50;;;10.73;38.83
63343;BME280;49465;57.664;39.686;2023-04-10T00:49:48;101472.19;;;10.72;39.04
63343;BME280;49465;57.664;39.686;2023-04-10T00:52:17;101477.88;;;10.81;38.87
63343;BME280;49465;57.664;39.686;2023-04-10T00:54:43;101477.66;;;10.67;38.54
63343;BME280;49465;57.664;39.686;2023-04-10T00:57:13;101477.94;;;10.80;38.91
63343;BME280;49465;57.664;39.686;2023-04-10T00:59:39;101468.19;;;10.64;38.72
63343;BME280;49465;57.664;39.686;2023-04-10T01:02:06;101465.69;;;10.61;38.39
63343;BME280;49465;57.664;39.686;2023-04-10T01:04:34;101463.97;;;10.60;38.33
63343;BME280;49465;57.664;39.686;2023-04-10T01:09:44;101477.44;;;10.72;38.80
63343;BME280;49465;57.664;39.686;2023-04-10T01:15:19;101471.66;;;10.65;38.69
63343;BME280;49465;57.664;39.686;2023-04-10T01:20:36;101471.28;;;10.54;39.32
63343;BME280;49465;57.664;39.686;2023-04-10T01:26:01;101467.31;;;10.45;39.43
63343;BME280;49465;57.664;39.686;2023-04-10T01:31:14;101484.59;;;10.49;39.21
63343;BME280;49465;57.664;39.686;2023-04-10T01:34:00;101480.63;;;10.59;39.30
63343;BME280;49465;57.664;39.686;2023-04-10T01:36:33;101482.88;;;10.48;38.94
63343;BME280;49465;57.664;39.686;2023-04-10T01:39:05;101482.09;;;10.46;40.26
63343;BME280;49465;57.664;39.686;2023-04-10T01:41:32;101488.28;;;10.24;39.77
63343;BME280;49465;57.664;39.686;2023-04-10T01:43:59;101479.84;;;10.18;38.87
63343;BME280;49465;57.664;39.686;2023-04-10T01:46:29;101483.44;;;10.15;39.67
63343;BME280;49465;57.664;39.686;2023-04-10T01:48:57;101485.19;;;10.15;39.86
63343;BME280;49465;57.664;39.686;2023-04-10T01:51:26;101483.56;;;10.12;40.23
63343;BME280;49465;57.664;39.686;2023-04-10T01:53:53;101478.59;;;10.06;40.66
63343;BME280;49465;57.664;39.686;2023-04-10T01:56:19;101488.31;;;10.04;41.24
63343;BME280;49465;57.664;39.686;2023-04-10T01:58:49;101481.34;;;10.03;41.08
63343;BME280;49465;57.664;39.686;2023-04-10T02:01:22;101492.63;;;10.25;40.90
63343;BME280;49465;57.664;39.686;2023-04-10T02:03:50;101485.94;;;9.98;40.37
63343;BME280;49465;57.664;39.686;2023-04-10T02:08:56;101488.66;;;10.15;40.34
63343;BME280;49465;57.664;39.686;2023-04-10T02:11:37;101491.94;;;10.20;39.82
63343;BME280;49465;57.664;39.686;2023-04-10T02:14:10;101495.13;;;10.08;40.36
63343;BME280;49465;57.664;39.686;2023-04-10T02:16:42;101490.63;;;9.89;39.62
63343;BME280;49465;57.664;39.686;2023-04-10T02:19:12;101492.94;;;9.97;39.38
63343;BME280;49465;57.664;39.686;2023-04-10T02:21:39;101492.75;;;9.81;39.56
63343;BME280;49465;57.664;39.686;2023-04-10T02:24:10;101499.28;;;9.92;39.38
63343;BME280;49465;57.664;39.686;2023-04-10T02:26:46;101495.38;;;10.02;39.63
63343;BME280;49465;57.664;39.686;2023-04-10T02:29:13;101494.00;;;9.73;40.17
63343;BME280;49465;57.664;39.686;2023-04-10T02:31:45;101486.19;;;9.92;40.43
63343;BME280;49465;57.664;39.686;2023-04-10T02:34:12;101490.69;;;9.67;41.71
63343;BME280;49465;57.664;39.686;2023-04-10T02:36:38;101488.13;;;9.66;41.24
63343;BME280;49465;57.664;39.686;2023-04-10T02:39:06;101500.44;;;9.64;40.45
63343;BME280;49465;57.664;39.686;2023-04-10T02:41:33;101495.34;;;9.61;40.35
63343;BME280;49465;57.664;39.686;2023-04-10T02:43:59;101491.94;;;9.59;40.24
63343;BME280;49465;57.664;39.686;2023-04-10T02:46:26;101492.00;;;9.57;40.26
63343;BME280;49465;57.664;39.686;2023-04-10T02:48:53;101499.91;;;9.56;40.40
63343;BME280;49465;57.664;39.686;2023-04-10T02:51:23;101497.72;;;9.67;40.67
63343;BME280;49465;57.664;39.686;2023-04-10T02:53:52;101489.50;;;9.54;40.91
63343;BME280;49465;57.664;39.686;2023-04-10T02:56:21;101491.31;;;9.52;41.04
63343;BME280;49465;57.664;39.686;2023-04-10T02:58:47;101494.81;;;9.53;40.86
63343;BME280;49465;57.664;39.686;2023-04-10T03:01:19;101500.38;;;9.65;40.62
63343;BME280;49465;57.664;39.686;2023-04-10T03:03:47;101490.47;;;9.52;40.32
63343;BME280;49465;57.664;39.686;2023-04-10T03:06:13;101498.38;;;9.50;40.09
63343;BME280;49465;57.664;39.686;2023-04-10T03:08:43;101495.78;;;9.50;39.93
63343;BME280;49465;57.664;39.686;2023-04-10T03:11:13;101492.31;;;9.49;39.91
63343;BME280;49465;57.664;39.686;2023-04-10T03:13:45;101495.25;;;9.62;40.22
63343;BME280;49465;57.664;39.686;2023-04-10T03:16:16;101498.59;;;9.66;40.39
63343;BME280;49465;57.664;39.686;2023-04-10T03:18:46;101504.00;;;9.63;40.24
63343;BME280;49465;57.664;39.686;2023-04-10T03:21:18;101504.84;;;9.63;40.09
63343;BME280;49465;57.664;39.686;2023-04-10T03:23:44;101509.66;;;9.52;39.95
63343;BME280;49465;57.664;39.686;2023-04-10T03:26:13;101504.47;;;9.50;40.14
63343;BME280;49465;57.664;39.686;2023-04-10T03:28:43;101503.13;;;9.62;40.34
63343;BME280;49465;57.664;39.686;2023-04-10T03:31:15;101494.00;;;9.73;40.25
63343;BME280;49465;57.664;39.686;2023-04-10T03:33:41;101498.53;;;9.47;39.60
63343;BME280;49465;57.664;39.686;2023-04-10T03:36:13;101505.94;;;9.58;40.03
63343;BME280;49465;57.664;39.686;2023-04-10T03:38:43;101496.63;;;9.50;40.00
63343;BME280;49465;57.664;39.686;2023-04-10T03:41:12;101503.56;;;9.52;40.23
63343;BME280;49465;57.664;39.686;2023-04-10T03:43:41;101496.56;;;9.52;40.22
63343;BME280;49465;57.664;39.686;2023-04-10T03:46:08;101505.19;;;9.54;39.91
63343;BME280;49465;57.664;39.686;2023-04-10T03:48:37;101507.75;;;9.56;40.25
63343;BME280;49465;57.664;39.686;2023-04-10T03:51:03;101512.09;;;9.57;39.97
63343;BME280;49465;57.664;39.686;2023-04-10T03:53:32;101506.72;;;9.60;39.80
63343;BME280;49465;57.664;39.686;2023-04-10T03:56:04;101517.81;;;9.66;39.59
63343;BME280;49465;57.664;39.686;2023-04-10T03:58:31;101523.91;;;9.67;39.15
63343;BME280;49465;57.664;39.686;2023-04-10T04:00:57;101515.84;;;9.72;39.53
63343;BME280;49465;57.664;39.686;2023-04-10T04:03:24;101513.09;;;9.75;39.02
63343;BME280;49465;57.664;39.686;2023-04-10T04:05:50;101522.53;;;9.79;39.71
63343;BME280;49465;57.664;39.686;2023-04-10T04:08:17;101517.09;;;9.83;39.60
63343;BME280;49465;57.664;39.686;2023-04-10T04:10:46;101521.22;;;9.89;39.31
63343;BME280;49465;57.664;39.686;2023-04-10T04:13:13;101516.66;;;9.94;39.03
63343;BME280;49465;57.664;39.686;2023-04-10T04:15:45;101521.16;;;10.11;39.17
63343;BME280;49465;57.664;39.686;2023-04-10T04:18:12;101507.44;;;10.06;39.27
63343;BME280;49465;57.664;39.686;2023-04-10T04:20:39;101508.06;;;10.11;38.70
63343;BME280;49465;57.664;39.686;2023-04-10T04:23:07;101516.47;;;10.19;38.73
63343;BME280;49465;57.664;39.686;2023-04-10T04:25:36;101508.34;;;10.25;39.01
63343;BME280;49465;57.664;39.686;2023-04-10T04:28:02;101505.72;;;10.25;39.37
63343;BME280;49465;57.664;39.686;2023-04-10T04:30:29;101504.09;;;10.43;38.75
63343;BME280;49465;57.664;39.686;2023-04-10T04:32:55;101502.75;;;10.54;38.42
63343;BME280;49465;57.664;39.686;2023-04-10T04:35:22;101507.59;;;10.63;38.19
63343;BME280;49465;57.664;39.686;2023-04-10T04:37:48;101499.28;;;10.72;38.70
63343;BME280;49465;57.664;39.686;2023-04-10T04:40:17;101507.56;;;10.82;38.15
63343;BME280;49465;57.664;39.686;2023-04-10T04:42:43;101514.03;;;10.94;38.27
63343;BME280;49465;57.664;39.686;2023-04-10T04:45:13;101506.44;;;11.06;38.05
63343;BME280;49465;57.664;39.686;2023-04-10T04:47:42;101510.19;;;11.20;38.04
63343;BME280;49465;57.664;39.686;2023-04-10T04:50:09;101507.69;;;11.36;37.59
63343;BME280;49465;57.664;39.686;2023-04-10T04:52:35;101508.63;;;11.52;37.41
63343;BME280;49465;57.664;39.686;2023-04-10T04:55:02;101507.94;;;11.66;37.08
63343;BME280;49465;57.664;39.686;2023-04-10T04:57:30;101505.50;;;11.80;36.43
63343;BME280;49465;57.664;39.686;2023-04-10T04:59:59;101507.28;;;11.97;36.50
63343;BME280;49465;57.664;39.686;2023-04-10T05:02:26;101514.25;;;12.16;36.71
63343;BME280;49465;57.664;39.686;2023-04-10T05:04:52;101507.44;;;12.29;35.51
63343;BME280;49465;57.664;39.686;2023-04-10T05:07:19;101509.16;;;12.46;35.64
63343;BME280;49465;57.664;39.686;2023-04-10T05:09:48;101514.56;;;12.60;34.58
63343;BME280;49465;57.664;39.686;2023-04-10T05:12:14;101518.13;;;12.75;34.98
63343;BME280;49465;57.664;39.686;2023-04-10T05:14:41;101513.81;;;12.90;34.96
63343;BME280;49465;57.664;39.686;2023-04-10T05:17:10;101519.16;;;13.04;33.67
63343;BME280;49465;57.664;39.686;2023-04-10T05:19:39;101520.00;;;13.21;34.13
63343;BME280;49465;57.664;39.686;2023-04-10T05:22:08;101523.53;;;13.37;33.84
63343;BME280;49465;57.664;39.686;2023-04-10T05:24:38;101515.59;;;13.53;33.47
63343;BME280;49465;57.664;39.686;2023-04-10T05:27:04;101516.41;;;13.70;33.05
63343;BME280;49465;57.664;39.686;2023-04-10T05:29:31;101516.34;;;13.85;33.00
63343;BME280;49465;57.664;39.686;2023-04-10T05:32:00;101519.97;;;13.99;33.14
63343;BME280;49465;57.664;39.686;2023-04-10T05:34:29;101529.53;;;14.16;32.39
63343;BME280;49465;57.664;39.686;2023-04-10T05:36:58;101525.84;;;14.33;32.10
63343;BME280;49465;57.664;39.686;2023-04-10T05:39:27;101530.88;;;14.52;31.59
63343;BME280;49465;57.664;39.686;2023-04-10T05:41:56;101538.91;;;14.79;31.80
63343;BME280;49465;57.664;39.686;2023-04-10T05:44:26;101531.53;;;14.98;31.83
63343;BME280;49465;57.664;39.686;2023-04-10T05:47:04;101538.44;;;15.28;31.77
63343;BME280;49465;57.664;39.686;2023-04-10T05:49:33;101536.25;;;15.35;30.61
63343;BME280;49465;57.664;39.686;2023-04-10T05:52:06;101539.50;;;15.53;29.99
63343;BME280;49465;57.664;39.686;2023-04-10T05:54:32;101532.75;;;15.61;30.15
63343;BME280;49465;57.664;39.686;2023-04-10T05:57:01;101529.88;;;15.79;29.99
63343;BME280;49465;57.664;39.686;2023-04-10T05:59:33;101530.75;;;15.92;30.94
63343;BME280;49465;57.664;39.686;2023-04-10T06:02:07;101535.66;;;16.11;30.06
63343;BME280;49465;57.664;39.686;2023-04-10T06:04:38;101544.19;;;16.40;30.10
63343;BME280;49465;57.664;39.686;2023-04-10T06:07:10;101538.59;;;16.58;29.98
63343;BME280;49465;57.664;39.686;2023-04-10T06:09:42;101540.78;;;16.77;30.17
63343;BME280;49465;57.664;39.686;2023-04-10T06:12:11;101538.78;;;16.93;29.29
63343;BME280;49465;57.664;39.686;2023-04-10T06:14:43;101534.53;;;17.04;29.91
63343;BME280;49465;57.664;39.686;2023-04-10T06:17:12;101535.09;;;17.20;28.64
63343;BME280;49465;57.664;39.686;2023-04-10T06:19:47;101538.28;;;17.49;29.47
63343;BME280;49465;57.664;39.686;2023-04-10T06:22:17;101536.88;;;17.68;28.85
63343;BME280;49465;57.664;39.686;2023-04-10T06:24:51;101535.59;;;17.73;29.14
63343;BME280;49465;57.664;39.686;2023-04-10T06:27:20;101530.13;;;17.88;28.28
63343;BME280;49465;57.664;39.686;2023-04-10T06:29:54;101531.00;;;18.11;27.64
63343;BME280;49465;57.664;39.686;2023-04-10T06:32:21;101522.47;;;18.18;28.18
63343;BME280;49465;57.664;39.686;2023-04-10T06:35:11;101533.25;;;18.51;28.16
63343;BME280;49465;57.664;39.686;2023-04-10T06:37:58;101536.88;;;18.61;27.57
63343;BME280;49465;57.664;39.686;2023-04-10T06:40:25;101535.78;;;18.75;26.85
63343;BME280;49465;57.664;39.686;2023-04-10T06:42:57;101533.72;;;19.01;26.54
63343;BME280;49465;57.664;39.686;2023-04-10T06:45:26;101533.38;;;19.06;27.66
63343;BME280;49465;57.664;39.686;2023-04-10T06:47:53;101530.19;;;19.23;26.48
63343;BME280;49465;57.664;39.686;2023-04-10T06:50:19;101539.31;;;19.42;26.66
63343;BME280;49465;57.664;39.686;2023-04-10T06:52:46;101531.75;;;19.58;25.97
63343;BME280;49465;57.664;39.686;2023-04-10T06:55:18;101539.19;;;19.75;26.38
63343;BME280;49465;57.664;39.686;2023-04-10T06:57:44;101540.84;;;19.88;26.20
63343;BME280;49465;57.664;39.686;2023-04-10T07:00:14;101535.84;;;19.94;26.35
63343;BME280;49465;57.664;39.686;2023-04-10T07:02:46;101535.13;;;20.13;25.57
63343;BME280;49465;57.664;39.686;2023-04-10T07:05:14;101533.78;;;20.19;25.82
63343;BME280;49465;57.664;39.686;2023-04-10T07:07:43;101541.72;;;20.40;26.71
63343;BME280;49465;57.664;39.686;2023-04-10T07:10:10;101536.72;;;20.47;25.52
63343;BME280;49465;57.664;39.686;2023-04-10T07:12:36;101544.38;;;20.61;25.26
63343;BME280;49465;57.664;39.686;2023-04-10T07:15:03;101541.31;;;20.76;24.76
63343;BME280;49465;57.664;39.686;2023-04-10T07:17:36;101548.72;;;21.03;24.69
63343;BME280;49465;57.664;39.686;2023-04-10T07:20:03;101546.63;;;21.06;25.23
63343;BME280;49465;57.664;39.686;2023-04-10T07:22:32;101539.22;;;21.20;24.83
63343;BME280;49465;57.664;39.686;2023-04-10T07:25:02;101534.47;;;21.43;24.53
63343;BME280;49465;57.664;39.686;2023-04-10T07:27:32;101536.75;;;21.67;24.03
63343;BME280;49465;57.664;39.686;2023-04-10T07:30:01;101528.75;;;21.67;24.21
63343;BME280;49465;57.664;39.686;2023-04-10T07:32:38;101537.31;;;21.80;23.13
63343;BME280;49465;57.664;39.686;2023-04-10T07:35:05;101529.56;;;21.87;23.85
63343;BME280;49465;57.664;39.686;2023-04-10T07:37:41;101524.75;;;22.10;23.99
63343;BME280;49465;57.664;39.686;2023-04-10T07:40:09;101529.94;;;22.11;24.45
63343;BME280;49465;57.664;39.686;2023-04-10T07:42:41;101536.34;;;22.38;23.98
63343;BME280;49465;57.664;39.686;2023-04-10T07:45:11;101531.47;;;22.34;23.25
63343;BME280;49465;57.664;39.686;2023-04-10T07:47:37;101531.56;;;22.42;22.52
63343;BME280;49465;57.664;39.686;2023-04-10T07:50:10;101529.50;;;22.63;22.88
63343;BME280;49465;57.664;39.686;2023-04-10T07:52:39;101522.19;;;22.65;23.17
63343;BME280;49465;57.664;39.686;2023-04-10T07:55:06;101528.09;;;22.69;22.39
63343;BME280;49465;57.664;39.686;2023-04-10T07:57:35;101520.16;;;22.77;23.06
63343;BME280;49465;57.664;39.686;2023-04-10T08:00:05;101517.44;;;22.87;22.54
63343;BME280;49465;57.664;39.686;2023-04-10T08:02:38;101525.41;;;22.97;22.46
63343;BME280;49465;57.664;39.686;2023-04-10T08:05:09;101526.13;;;23.17;23.54
63343;BME280;49465;57.664;39.686;2023-04-10T08:07:41;101518.81;;;23.19;24.09
63343;BME280;49465;57.664;39.686;2023-04-10T08:10:11;101516.66;;;23.40;23.59
63343;BME280;49465;57.664;39.686;2023-04-10T08:12:37;101513.31;;;23.38;22.80
63343;BME280;49465;57.664;39.686;2023-04-10T08:15:12;101519.03;;;23.61;23.25
63343;BME280;49465;57.664;39.686;2023-04-10T08:17:44;101519.28;;;23.68;22.40
63343;BME280;49465;57.664;39.686;2023-04-10T08:20:14;101512.75;;;23.71;22.66
63343;BME280;49465;57.664;39.686;2023-04-10T08:22:40;101514.81;;;23.77;22.13
63343;BME280;49465;57.664;39.686;2023-04-10T08:25:10;101508.41;;;23.87;22.46
63343;BME280;49465;57.664;39.686;2023-04-10T08:27:36;101506.25;;;23.91;21.92
63343;BME280;49465;57.664;39.686;2023-04-10T08:30:16;101509.66;;;24.27;22.32
63343;BME280;49465;57.664;39.686;2023-04-10T08:32:42;101505.19;;;24.10;21.86
63343;BME280;49465;57.664;39.686;2023-04-10T08:35:09;101505.41;;;24.17;21.53
63343;BME280;49465;57.664;39.686;2023-04-10T08:37:41;101506.50;;;24.32;21.46
63343;BME280;49465;57.664;39.686;2023-04-10T08:40:07;101502.31;;;24.30;21.13
63343;BME280;49465;57.664;39.686;2023-04-10T08:42:35;101497.81;;;24.38;21.15
63343;BME280;49465;57.664;39.686;2023-04-10T08:45:02;101494.00;;;24.41;21.37
63343;BME280;49465;57.664;39.686;2023-04-10T08:47:29;101499.53;;;24.47;20.87
63343;BME280;49465;57.664;39.686;2023-04-10T08:50:03;101504.31;;;24.62;21.66
63343;BME280;49465;57.664;39.686;2023-04-10T08:52:37;101507.59;;;24.82;22.30
63343;BME280;49465;57.664;39.686;2023-04-10T08:55:09;101499.66;;;24.64;21.17
63343;BME280;49465;57.664;39.686;2023-04-10T08:57:38;101501.69;;;24.70;21.01
63343;BME280;49465;57.664;39.686;2023-04-10T09:00:08;101507.22;;;24.77;21.20
63343;BME280;49465;57.664;39.686;2023-04-10T09:02:38;101496.19;;;24.80;22.20
63343;BME280;49465;57.664;39.686;2023-04-10T09:05:08;101496.66;;;24.75;20.97
63343;BME280;49465;57.664;39.686;2023-04-10T09:07:35;101497.84;;;24.81;20.23
63343;BME280;49465;57.664;39.686;2023-04-10T09:10:02;101496.19;;;24.88;21.13
63343;BME280;49465;57.664;39.686;2023-04-10T09:12:28;101496.72;;;24.92;20.11
63343;BME280;49465;57.664;39.686;2023-04-10T09:14:56;101498.09;;;25.04;20.77
63343;BME280;49465;57.664;39.686;2023-04-10T09:17:26;101498.09;;;25.04;20.80
63343;BME280;49465;57.664;39.686;2023-04-10T09:19:54;101494.72;;;25.10;20.13
63343;BME280;49465;57.664;39.686;2023-04-10T09:22:34;101501.84;;;25.44;19.31
63343;BME280;49465;57.664;39.686;2023-04-10T09:25:02;101492.91;;;25.19;19.75
63343;BME280;49465;57.664;39.686;2023-04-10T09:27:34;101496.31;;;25.37;21.40
63343;BME280;49465;57.664;39.686;2023-04-10T09:30:03;101486.84;;;25.17;19.55
63343;BME280;49465;57.664;39.686;2023-04-10T09:32:53;101497.16;;;25.54;20.66
63343;BME280;49465;57.664;39.686;2023-04-10T09:35:20;101497.09;;;25.13;20.10
63343;BME280;49465;57.664;39.686;2023-04-10T09:37:49;101493.91;;;25.10;20.09
63343;BME280;49465;57.664;39.686;2023-04-10T09:40:21;101492.59;;;25.22;20.39
63343;BME280;49465;57.664;39.686;2023-04-10T09:42:49;101495.25;;;25.14;20.37
63343;BME280;49465;57.664;39.686;2023-04-10T09:45:16;101486.69;;;25.18;19.91
63343;BME280;49465;57.664;39.686;2023-04-10T09:48:04;101494.97;;;25.58;21.44
63343;BME280;49465;57.664;39.686;2023-04-10T09:50:37;101489.09;;;25.46;21.55
63343;BME280;49465;57.664;39.686;2023-04-10T09:53:06;101479.50;;;25.19;20.25
63343;BME280;49465;57.664;39.686;2023-04-10T09:55:34;101487.44;;;25.29;19.52
63343;BME280;49465;57.664;39.686;2023-04-10T09:58:03;101491.25;;;25.34;20.29
63343;BME280;49465;57.664;39.686;2023-04-10T10:00:34;101482.88;;;25.45;21.13
63343;BME280;49465;57.664;39.686;2023-04-10T10:03:06;101482.22;;;25.43;19.38
63343;BME280;49465;57.664;39.686;2023-04-10T10:05:40;101489.44;;;25.43;20.66
63343;BME280;49465;57.664;39.686;2023-04-10T10:08:09;101479.38;;;25.37;19.97
63343;BME280;49465;57.664;39.686;2023-04-10T10:10:43;101476.34;;;25.40;19.06
63343;BME280;49465;57.664;39.686;2023-04-10T10:13:27;101487.25;;;25.38;19.60
63343;BME280;49465;57.664;39.686;2023-04-10T10:16:24;101483.56;;;25.64;20.69
63343;BME280;49465;57.664;39.686;2023-04-10T10:19:05;101480.19;;;25.21;19.67
63343;BME280;49465;57.664;39.686;2023-04-10T10:21:38;101482.66;;;25.06;18.88
63343;BME280;49465;57.664;39.686;2023-04-10T10:24:12;101479.16;;;25.14;17.07
63343;BME280;49465;57.664;39.686;2023-04-10T10:26:49;101464.03;;;25.04;20.63
63343;BME280;49465;57.664;39.686;2023-04-10T10:29:22;101477.97;;;25.00;19.71
63343;BME280;49465;57.664;39.686;2023-04-10T10:31:49;101468.72;;;24.86;18.58
63343;BME280;49465;57.664;39.686;2023-04-10T10:34:20;101471.91;;;24.98;18.54
63343;BME280;49465;57.664;39.686;2023-04-10T10:36:50;101465.69;;;24.89;19.69
63343;BME280;49465;57.664;39.686;2023-04-10T10:42:52;101467.97;;;25.35;20.10
63343;BME280;49465;57.664;39.686;2023-04-10T10:45:30;101468.28;;;25.23;20.62
63343;BME280;49465;57.664;39.686;2023-04-10T10:47:58;101459.53;;;25.13;19.95
63343;BME280;49465;57.664;39.686;2023-04-10T10:50:55;101461.75;;;25.59;21.12
63343;BME280;49465;57.664;39.686;2023-04-10T10:58:55;101463.94;;;25.31;18.49
63343;BME280;49465;57.664;39.686;2023-04-10T11:01:38;101462.41;;;25.36;19.19
63343;BME280;49465;57.664;39.686;2023-04-10T11:04:41;101459.03;;;25.75;20.91
63343;BME280;49465;57.664;39.686;2023-04-10T11:07:07;101449.34;;;25.41;19.83
63343;BME280;49465;57.664;39.686;2023-04-10T11:09:51;101456.03;;;25.78;20.60
63343;BME280;49465;57.664;39.686;2023-04-10T11:15:35;101449.50;;;25.56;18.93
63343;BME280;49465;57.664;39.686;2023-04-10T11:18:07;101440.94;;;25.53;19.16
63343;BME280;49465;57.664;39.686;2023-04-10T11:21:10;101442.56;;;25.87;21.26
63343;BME280;49465;57.664;39.686;2023-04-10T11:24:02;101452.13;;;25.89;20.75
63343;BME280;49465;57.664;39.686;2023-04-10T11:31:57;101440.91;;;25.94;19.83
63343;BME280;49465;57.664;39.686;2023-04-10T11:34:30;101430.19;;;25.69;17.83
63343;BME280;49465;57.664;39.686;2023-04-10T11:37:03;101430.00;;;25.79;18.79
63343;BME280;49465;57.664;39.686;2023-04-10T11:39:35;101429.88;;;25.64;20.08
63343;BME280;49465;57.664;39.686;2023-04-10T11:42:09;101424.13;;;25.67;19.43
63343;BME280;49465;57.664;39.686;2023-04-10T11:44:39;101426.13;;;25.81;18.52
63343;BME280;49465;57.664;39.686;2023-04-10T11:47:16;101436.38;;;25.94;19.90
63343;BME280;49465;57.664;39.686;2023-04-10T11:49:56;101433.00;;;26.00;19.48
63343;BME280;49465;57.664;39.686;2023-04-10T11:52:28;101422.09;;;25.77;18.95
63343;BME280;49465;57.664;39.686;2023-04-10T11:54:58;101420.41;;;25.93;18.27
63343;BME280;49465;57.664;39.686;2023-04-10T11:57:34;101420.84;;;26.13;20.16
63343;BME280;49465;57.664;39.686;2023-04-10T12:00:06;101419.75;;;25.91;19.28
63343;BME280;49465;57.664;39.686;2023-04-10T12:02:53;101423.13;;;26.32;20.05
63343;BME280;49465;57.664;39.686;2023-04-10T12:05:22;101415.66;;;26.11;19.71
63343;BME280;49465;57.664;39.686;2023-04-10T12:07:51;101410.16;;;25.96;20.07
63343;BME280;49465;57.664;39.686;2023-04-10T12:10:27;101415.63;;;26.19;20.98
63343;BME280;49465;57.664;39.686;2023-04-10T12:12:53;101415.50;;;26.04;19.21
63343;BME280;49465;57.664;39.686;2023-04-10T12:15:29;101410.66;;;26.39;19.57
63343;BME280;49465;57.664;39.686;2023-04-10T12:18:00;101401.66;;;26.24;19.98
63343;BME280;49465;57.664;39.686;2023-04-10T12:20:32;101405.78;;;26.43;19.33
63343;BME280;49465;57.664;39.686;2023-04-10T12:22:59;101390.13;;;26.47;19.48
63343;BME280;49465;57.664;39.686;2023-04-10T12:25:31;101395.47;;;26.55;19.29
63343;BME280;49465;57.664;39.686;2023-04-10T12:28:00;101392.09;;;26.61;19.55
63343;BME280;49465;57.664;39.686;2023-04-10T12:30:32;101389.81;;;26.73;18.41
63343;BME280;49465;57.664;39.686;2023-04-10T12:33:07;101389.28;;;26.77;18.58
63343;BME280;49465;57.664;39.686;2023-04-10T12:35:44;101385.84;;;26.92;19.18
63343;BME280;49465;57.664;39.686;2023-04-10T12:38:16;101371.81;;;26.73;18.51
63343;BME280;49465;57.664;39.686;2023-04-10T12:41:08;101372.97;;;26.79;18.29
63343;BME280;49465;57.664;39.686;2023-04-10T12:43:44;101367.66;;;26.94;18.07
63343;BME280;49465;57.664;39.686;2023-04-10T12:46:42;101368.72;;;27.31;20.52
63343;BME280;49465;57.664;39.686;2023-04-10T12:49:18;101361.13;;;27.11;19.34
63343;BME280;49465;57.664;39.686;2023-04-10T12:51:51;101362.19;;;27.25;19.61
63343;BME280;49465;57.664;39.686;2023-04-10T12:54:30;101362.59;;;27.37;20.34
63343;BME280;49465;57.664;39.686;2023-04-10T12:56:58;101357.66;;;27.26;19.76
63343;BME280;49465;57.664;39.686;2023-04-10T12:59:30;101350.03;;;27.29;19.03
63343;BME280;49465;57.664;39.686;2023-04-10T13:02:00;101350.78;;;27.38;19.84
63343;BME280;49465;57.664;39.686;2023-04-10T13:04:31;101354.34;;;27.53;19.15
63343;BME280;49465;57.664;39.686;2023-04-10T13:07:01;101348.47;;;27.50;18.26
63343;BME280;49465;57.664;39.686;2023-04-10T13:09:27;101343.38;;;27.55;18.02
63343;BME280;49465;57.664;39.686;2023-04-10T13:11:59;101349.13;;;27.67;18.83
63343;BME280;49465;57.664;39.686;2023-04-10T13:14:26;101340.69;;;27.55;18.60
63343;BME280;49465;57.664;39.686;2023-04-10T13:16:59;101350.78;;;27.68;18.53
63343;BME280;49465;57.664;39.686;2023-04-10T13:19:35;101345.06;;;27.86;18.91
63343;BME280;49465;57.664;39.686;2023-04-10T13:22:07;101342.34;;;27.71;18.09
63343;BME280;49465;57.664;39.686;2023-04-10T13:24:42;101346.00;;;27.78;18.69
63343;BME280;49465;57.664;39.686;2023-04-10T13:27:11;101346.34;;;27.75;19.24
63343;BME280;49465;57.664;39.686;2023-04-10T13:29:39;101344.41;;;27.69;18.65
63343;BME280;49465;57.664;39.686;2023-04-10T13:32:09;101342.66;;;27.76;17.52